createdAt,value
2023-02-25T00:01:14.433Z,0.77
2023-02-25T00:06:36.174Z,0.73
2023-02-25T00:11:57.929Z,0.43
2023-02-25T00:17:19.648Z,0.68
2023-02-25T00:22:42.178Z,0.60
2023-02-25T00:28:06.521Z,0.80
2023-02-25T00:33:28.372Z,0.60
2023-02-25T00:38:52.262Z,0.68
2023-02-25T00:44:14.068Z,0.70
2023-02-25T00:49:36.171Z,0.70
2023-02-25T00:54:57.895Z,0.70
2023-02-25T01:00:20.034Z,0.70
2023-02-25T01:05:42.149Z,0.52
2023-02-25T01:11:14.468Z,0.60
2023-02-25T01:16:36.515Z,0.50
2023-02-25T01:21:59.750Z,0.50
2023-02-25T01:27:21.527Z,1.08
2023-02-25T01:32:43.305Z,0.73
2023-02-25T01:38:05.116Z,0.57
2023-02-25T01:43:28.626Z,0.60
2023-02-25T01:48:50.343Z,0.50
2023-02-25T01:54:13.808Z,0.50
2023-02-25T01:59:36.267Z,0.50
2023-02-25T02:04:57.988Z,0.40
2023-02-25T02:10:19.884Z,0.73
2023-02-25T02:15:48.327Z,0.50
2023-02-25T02:21:18.159Z,0.30
2023-02-25T02:26:45.789Z,0.20
2023-02-25T02:32:31.708Z,0.35
2023-02-25T02:38:13.052Z,0.47
2023-02-25T02:43:58.197Z,0.60
2023-02-25T02:49:49.225Z,0.20
2023-02-25T02:55:22.641Z,0.30
2023-02-25T03:00:48.729Z,0.45
2023-02-25T03:06:23.943Z,0.30
2023-02-25T03:11:45.922Z,0.43
2023-02-25T03:17:15.646Z,0.52
2023-02-25T03:22:41.287Z,0.60
2023-02-25T03:33:32.377Z,0.50
2023-02-25T03:38:58.623Z,0.52
2023-02-25T03:44:26.834Z,0.70
2023-02-25T03:49:59.833Z,0.45
2023-02-25T03:55:21.774Z,0.40
2023-02-25T04:00:46.272Z,0.40
2023-02-25T04:06:08.021Z,0.30
2023-02-25T04:11:29.834Z,0.52
2023-02-25T04:16:51.695Z,0.40
2023-02-25T04:22:13.465Z,0.30
2023-02-25T04:27:35.240Z,0.50
2023-02-25T04:32:57.125Z,0.50
2023-02-25T04:38:18.922Z,0.60
2023-02-25T04:43:40.745Z,0.40
2023-02-25T04:49:03.765Z,0.50
2023-02-25T04:54:25.477Z,0.47
2023-02-25T04:59:47.465Z,0.68
2023-02-25T05:05:10.424Z,0.45
2023-02-25T05:10:32.287Z,0.60
2023-02-25T05:16:04.215Z,0.60
2023-02-25T05:21:26.879Z,0.68
2023-02-25T05:26:48.594Z,0.40
2023-02-25T05:32:10.394Z,0.60
2023-02-25T05:37:32.694Z,0.73
2023-02-25T05:42:54.445Z,0.70
2023-02-25T05:48:16.197Z,0.50
2023-02-25T05:53:38.094Z,0.80
2023-02-25T05:58:59.878Z,0.70
2023-02-25T06:04:22.322Z,0.50
2023-02-25T06:09:44.122Z,0.77
2023-02-25T06:15:06.269Z,0.65
2023-02-25T06:20:28.580Z,0.52
2023-02-25T06:25:50.312Z,0.80
2023-02-25T06:31:15.515Z,0.68
2023-02-25T06:36:37.396Z,0.80
2023-02-25T06:41:59.531Z,0.57
2023-02-25T06:47:22.746Z,0.95
2023-02-25T06:52:44.557Z,1.48
2023-02-25T06:58:06.734Z,1.90
2023-02-25T07:03:28.532Z,1.90
2023-02-25T07:08:50.847Z,1.90
2023-02-25T07:14:16.486Z,1.92
2023-02-25T07:19:38.221Z,1.70
2023-02-25T07:25:00.169Z,1.50
2023-02-25T07:30:22.349Z,1.77
2023-02-25T07:35:44.083Z,1.67
2023-02-25T07:41:11.449Z,1.30
2023-02-25T07:46:33.979Z,1.63
2023-02-25T07:51:55.809Z,1.55
2023-02-25T07:57:17.518Z,1.13
2023-02-25T08:02:39.913Z,1.60
2023-02-25T08:08:01.728Z,1.60
2023-02-25T08:13:23.441Z,1.52
2023-02-25T08:18:45.289Z,1.40
2023-02-25T08:24:08.294Z,1.60
2023-02-25T08:29:30.200Z,1.67
2023-02-25T08:34:52.824Z,1.90
2023-02-25T08:40:15.253Z,1.25
2023-02-25T08:45:38.231Z,1.70
2023-02-25T08:51:05.522Z,1.75
2023-02-25T08:56:27.703Z,1.80
2023-02-25T09:01:50.540Z,1.60
2023-02-25T09:07:16.675Z,1.55
2023-02-25T09:12:38.894Z,1.50
2023-02-25T09:18:00.607Z,1.50
2023-02-25T09:23:22.317Z,1.88
2023-02-25T09:28:44.230Z,1.48
2023-02-25T09:34:08.979Z,1.90
2023-02-25T09:39:31.054Z,1.60
2023-02-25T09:44:59.874Z,2.45
2023-02-25T09:50:27.064Z,2.42
2023-02-25T09:55:52.884Z,2.55
2023-02-25T10:01:27.106Z,2.10
2023-02-25T10:06:51.248Z,2.25
2023-02-25T10:12:41.172Z,2.50
2023-02-25T10:18:33.107Z,2.33
2023-02-25T10:23:55.019Z,2.03
2023-02-25T10:29:36.873Z,2.47
2023-02-25T10:35:01.686Z,2.67
2023-02-25T10:40:26.826Z,2.57
2023-02-25T10:45:55.453Z,2.15
2023-02-25T10:51:17.257Z,2.28
2023-02-25T10:56:45.378Z,1.83
2023-02-25T11:02:30.441Z,2.08
2023-02-25T11:07:52.593Z,1.50
2023-02-25T11:13:29.017Z,1.88
2023-02-25T11:18:57.792Z,1.70
2023-02-25T11:24:31.513Z,1.85
2023-02-25T11:29:53.784Z,1.95
2023-02-25T11:35:20.372Z,1.95
2023-02-25T11:40:44.601Z,2.25
2023-02-25T11:46:12.173Z,2.28
2023-02-25T11:51:52.478Z,2.38
2023-02-25T11:57:27.951Z,1.80
2023-02-25T12:03:07.900Z,1.17
2023-02-25T12:08:37.712Z,2.08
2023-02-25T12:14:16.713Z,1.58
2023-02-25T12:19:57.365Z,1.45
2023-02-25T12:25:27.845Z,1.75
2023-02-25T12:31:40.632Z,1.40
2023-02-25T12:37:33.959Z,1.58
2023-02-25T12:43:02.956Z,1.33
2023-02-25T12:48:35.551Z,1.98
2023-02-25T12:54:22.067Z,1.20
2023-02-25T13:00:02.444Z,1.27
2023-02-25T13:05:58.869Z,1.02
2023-02-25T13:11:31.270Z,1.47
2023-02-25T13:17:16.651Z,1.10
2023-02-25T13:22:59.085Z,0.80
2023-02-25T13:28:38.215Z,1.05
2023-02-25T13:34:39.356Z,1.20
2023-02-25T13:40:36.602Z,0.90
2023-02-25T13:52:21.584Z,1.30
2023-02-25T13:58:20.723Z,1.17
2023-02-25T14:04:09.173Z,0.70
2023-02-25T14:09:35.809Z,0.80
2023-02-25T14:15:12.782Z,0.90
2023-02-25T14:20:59.406Z,0.73
2023-02-25T14:31:59.345Z,0.77
2023-02-25T14:37:50.096Z,0.93
2023-02-25T14:43:33.338Z,1.10
2023-02-25T14:49:21.481Z,0.80
2023-02-25T14:55:14.230Z,0.90
2023-02-25T15:00:55.765Z,1.23
2023-02-25T15:06:26.882Z,1.30
2023-02-25T15:12:26.629Z,1.25
2023-02-25T15:18:07.073Z,0.90
2023-02-25T15:23:51.569Z,1.10
2023-02-25T15:29:29.400Z,1.33
2023-02-25T15:34:53.770Z,1.30
2023-02-25T15:40:15.477Z,1.48
2023-02-25T15:45:38.860Z,1.35
2023-02-25T15:51:01.990Z,1.10
2023-02-25T15:56:28.387Z,1.40
2023-02-25T16:01:50.277Z,1.38
2023-02-25T16:07:15.891Z,1.35
2023-02-25T16:18:16.109Z,1.25
2023-02-25T16:23:41.246Z,1.10
2023-02-25T16:29:15.296Z,1.65
2023-02-25T16:34:42.068Z,1.23
2023-02-25T16:40:05.233Z,1.10
2023-02-25T16:45:31.204Z,1.55
2023-02-25T16:50:54.555Z,1.30
2023-02-25T16:56:23.361Z,1.10
2023-02-25T17:02:00.278Z,1.15
2023-02-25T17:07:28.030Z,1.40
2023-02-25T17:12:49.868Z,1.35
2023-02-25T17:18:46.099Z,1.50
2023-02-25T17:24:17.351Z,1.40
2023-02-25T17:29:40.240Z,1.30
2023-02-25T17:35:03.696Z,1.50
2023-02-25T17:40:27.643Z,1.65
2023-02-25T17:45:58.441Z,1.50
2023-02-25T17:51:30.317Z,1.30
2023-02-25T17:57:02.077Z,1.60
2023-02-25T18:02:34.381Z,1.23
2023-02-25T18:08:24.857Z,1.52
2023-02-25T18:13:46.578Z,1.23
2023-02-25T18:19:12.220Z,1.60
2023-02-25T18:24:36.712Z,1.35
2023-02-25T18:30:21.663Z,1.20
2023-02-25T18:35:46.234Z,1.30
2023-02-25T18:41:08.157Z,1.42
2023-02-25T18:46:29.937Z,1.30
2023-02-25T18:51:52.327Z,1.30
2023-02-25T18:57:22.601Z,1.48
2023-02-25T19:02:53.251Z,1.35
2023-02-25T19:08:16.993Z,1.30
2023-02-25T19:13:42.128Z,1.20
2023-02-25T19:19:04.276Z,1.20
2023-02-25T19:24:25.980Z,1.00
2023-02-25T19:29:54.550Z,1.08
2023-02-25T19:35:16.883Z,1.08
2023-02-25T19:40:38.643Z,1.20
2023-02-25T19:46:00.961Z,2.92
2023-02-25T19:51:23.201Z,3.85
2023-02-25T19:56:45.299Z,2.45
2023-02-25T20:02:07.139Z,3.10
2023-02-25T20:07:28.979Z,2.83
2023-02-25T20:12:50.767Z,2.10
2023-02-25T20:18:12.521Z,1.98
2023-02-25T20:23:34.744Z,2.15
2023-02-25T20:28:57.606Z,1.95
2023-02-25T20:34:22.012Z,1.80
2023-02-25T20:39:48.081Z,1.77
2023-02-25T20:45:15.149Z,2.00
2023-02-25T20:50:38.442Z,1.70
2023-02-25T20:56:00.451Z,1.60
2023-02-25T21:01:22.571Z,1.30
2023-02-25T21:06:44.460Z,1.65
2023-02-25T21:12:07.105Z,1.20
2023-02-25T21:17:28.904Z,1.48
2023-02-25T21:22:50.655Z,1.83
2023-02-25T21:28:15.364Z,1.33
2023-02-25T21:33:39.693Z,1.33
2023-02-25T21:39:01.534Z,1.30
2023-02-25T21:44:23.568Z,1.33
2023-02-25T21:49:45.602Z,1.58
2023-02-25T21:55:08.404Z,2.03
2023-02-25T22:00:30.126Z,1.95
2023-02-25T22:05:51.908Z,1.60
2023-02-25T22:11:16.080Z,1.10
2023-02-25T22:16:39.110Z,1.50
2023-02-25T22:22:00.805Z,1.27
2023-02-25T22:27:23.126Z,1.17
2023-02-25T22:32:44.831Z,1.27
2023-02-25T22:38:06.760Z,1.17
2023-02-25T22:43:29.920Z,1.52
2023-02-25T22:48:52.416Z,1.17
2023-02-25T22:54:16.527Z,1.27
2023-02-25T22:59:38.364Z,1.70
2023-02-25T23:05:00.774Z,1.20
2023-02-25T23:10:24.413Z,1.27
2023-02-25T23:15:47.982Z,1.27
2023-02-25T23:21:15.869Z,1.00
2023-02-25T23:26:40.407Z,1.40
2023-02-25T23:32:03.186Z,1.58
2023-02-25T23:37:25.029Z,1.30
2023-02-25T23:42:46.809Z,1.10
2023-02-25T23:48:08.881Z,1.13
2023-02-25T23:53:30.814Z,1.52
2023-02-25T23:58:56.969Z,1.10
